createdAt,value
2023-01-26T00:02:00.936Z,99160.00
2023-01-26T00:05:02.738Z,99160.84
2023-01-26T00:08:04.556Z,99169.50
2023-01-26T00:11:06.507Z,99161.59
2023-01-26T00:14:08.102Z,99165.91
2023-01-26T00:17:11.039Z,99162.41
2023-01-26T00:20:13.142Z,99155.41
2023-01-26T00:23:14.967Z,99144.88
2023-01-26T00:26:18.201Z,99142.25
2023-01-26T00:29:19.799Z,99149.88
2023-01-26T00:32:22.870Z,99151.69
2023-01-26T00:35:24.790Z,99145.63
2023-01-26T00:38:26.436Z,99133.59
2023-01-26T00:41:48.356Z,99135.19
2023-01-26T00:44:50.981Z,99137.00
2023-01-26T00:47:53.992Z,99132.63
2023-01-26T00:50:55.659Z,99136.06
2023-01-26T00:53:57.357Z,99118.72
2023-01-26T00:56:59.246Z,99127.44
2023-01-26T01:00:01.264Z,99129.28
2023-01-26T01:03:04.522Z,99130.22
2023-01-26T01:06:06.044Z,99119.72
2023-01-26T01:09:08.006Z,99113.69
2023-01-26T01:12:10.121Z,99104.97
2023-01-26T01:15:12.052Z,99107.59
2023-01-26T01:18:15.297Z,99103.28
2023-01-26T01:21:17.776Z,99105.91
2023-01-26T01:24:19.565Z,99098.19
2023-01-26T01:27:21.328Z,99093.75
2023-01-26T01:30:22.860Z,99097.25
2023-01-26T01:33:25.990Z,99088.50
2023-01-26T01:36:29.286Z,99091.09
2023-01-26T01:39:30.902Z,99086.69
2023-01-26T01:42:33.484Z,99092.81
2023-01-26T01:45:42.360Z,99088.41
2023-01-26T01:48:49.108Z,99084.97
2023-01-26T01:51:52.417Z,99078.00
2023-01-26T01:55:01.912Z,99091.09
2023-01-26T01:58:04.275Z,99081.53
2023-01-26T02:01:05.890Z,99073.72
2023-01-26T02:04:09.509Z,99072.00
2023-01-26T02:07:14.563Z,99065.00
2023-01-26T02:10:20.061Z,99072.91
2023-01-26T02:13:22.758Z,99066.06
2023-01-26T02:16:24.418Z,99062.59
2023-01-26T02:19:33.042Z,99057.38
2023-01-26T02:22:41.354Z,99045.31
2023-01-26T02:25:47.419Z,99050.56
2023-01-26T02:28:50.733Z,99037.59
2023-01-26T02:31:53.719Z,99032.44
2023-01-26T02:34:57.318Z,99025.59
2023-01-26T02:37:59.467Z,99033.41
2023-01-26T02:41:03.038Z,99040.41
2023-01-26T02:44:08.853Z,99044.00
2023-01-26T02:47:11.976Z,99039.66
2023-01-26T02:50:15.295Z,99033.56
2023-01-26T02:53:18.660Z,99037.88
2023-01-26T02:56:20.243Z,99023.13
2023-01-26T02:59:23.271Z,99025.72
2023-01-26T03:02:25.487Z,99025.75
2023-01-26T03:05:27.788Z,99023.16
2023-01-26T03:08:30.522Z,99020.56
2023-01-26T03:11:42.113Z,99026.66
2023-01-26T03:14:45.648Z,99016.25
2023-01-26T03:17:47.565Z,99020.63
2023-01-26T03:21:07.844Z,99017.16
2023-01-26T03:24:30.514Z,99018.91
2023-01-26T03:27:35.984Z,99020.63
2023-01-26T03:30:39.660Z,99029.31
2023-01-26T03:33:41.674Z,99032.72
2023-01-26T03:36:44.592Z,99027.41
2023-01-26T03:40:08.545Z,99021.34
2023-01-26T03:43:29.085Z,99015.31
2023-01-26T03:46:51.113Z,99011.00
2023-01-26T03:50:11.849Z,99012.59
2023-01-26T03:53:31.434Z,99006.53
2023-01-26T03:56:33.804Z,99008.25
2023-01-26T03:59:40.735Z,99002.09
2023-01-26T04:03:04.983Z,99005.56
2023-01-26T04:06:25.431Z,98998.59
2023-01-26T04:09:27.549Z,98997.81
2023-01-26T04:12:30.620Z,98996.09
2023-01-26T04:16:01.115Z,98999.59
2023-01-26T04:19:23.112Z,99007.38
2023-01-26T04:22:25.661Z,99006.50
2023-01-26T04:25:27.402Z,99016.75
2023-01-26T04:28:31.536Z,99012.31
2023-01-26T04:31:33.651Z,99011.53
2023-01-26T04:34:37.271Z,98995.84
2023-01-26T04:37:47.791Z,98995.00
2023-01-26T04:40:52.890Z,98988.97
2023-01-26T04:43:54.659Z,98990.75
2023-01-26T04:46:57.368Z,98977.69
2023-01-26T04:50:00.570Z,98977.69
2023-01-26T04:53:02.355Z,98973.44
2023-01-26T04:56:05.164Z,98970.84
2023-01-26T04:59:08.190Z,98971.78
2023-01-26T05:02:12.694Z,98973.53
2023-01-26T05:05:15.824Z,98967.41
2023-01-26T05:08:18.847Z,98965.63
2023-01-26T05:11:20.493Z,98972.59
2023-01-26T05:14:39.648Z,98973.44
2023-01-26T05:18:01.623Z,98977.72
2023-01-26T05:21:25.117Z,98982.91
2023-01-26T05:24:27.066Z,98989.03
2023-01-26T05:27:42.989Z,98986.44
2023-01-26T05:30:45.029Z,98990.84
2023-01-26T05:33:46.971Z,98990.72
2023-01-26T05:36:55.369Z,98995.06
2023-01-26T05:39:57.484Z,99003.78
2023-01-26T05:42:59.149Z,98992.47
2023-01-26T05:46:39.608Z,98992.47
2023-01-26T05:49:45.891Z,98997.72
2023-01-26T05:52:54.288Z,99001.22
2023-01-26T05:55:56.108Z,98998.63
2023-01-26T05:58:59.973Z,98996.00
2023-01-26T06:02:01.884Z,99009.91
2023-01-26T06:05:04.029Z,99005.53
2023-01-26T06:08:07.499Z,99000.31
2023-01-26T06:11:23.341Z,99001.31
2023-01-26T06:14:39.177Z,98991.72
2023-01-26T06:17:41.588Z,98990.88
2023-01-26T06:20:45.167Z,98985.66
2023-01-26T06:23:48.453Z,98997.91
2023-01-26T06:26:50.587Z,98997.88
2023-01-26T06:29:53.590Z,99003.09
2023-01-26T06:32:55.396Z,99008.28
2023-01-26T06:36:01.293Z,99002.19
2023-01-26T06:39:04.371Z,98996.94
2023-01-26T06:42:08.045Z,98998.69
2023-01-26T06:45:10.603Z,98995.22
2023-01-26T06:48:13.721Z,98990.84
2023-01-26T06:51:40.563Z,98988.25
2023-01-26T06:54:43.671Z,98989.09
2023-01-26T06:57:54.642Z,98995.19
2023-01-26T07:01:14.995Z,98994.38
2023-01-26T07:04:17.383Z,99001.34
2023-01-26T07:07:19.034Z,98997.00
2023-01-26T07:10:22.544Z,99003.03
2023-01-26T07:13:24.134Z,99007.44
2023-01-26T07:16:25.869Z,99001.34
2023-01-26T07:19:30.029Z,99006.59
2023-01-26T07:22:31.780Z,99006.59
2023-01-26T07:25:34.993Z,99012.75
2023-01-26T07:28:39.233Z,99005.75
2023-01-26T07:31:41.775Z,99006.59
2023-01-26T07:34:43.419Z,99006.56
2023-01-26T07:37:45.344Z,99015.41
2023-01-26T07:40:48.372Z,99010.25
2023-01-26T07:43:51.003Z,99011.94
2023-01-26T07:46:54.561Z,99012.81
2023-01-26T07:49:56.446Z,99010.28
2023-01-26T07:53:00.095Z,99012.94
2023-01-26T07:56:07.305Z,99029.56
2023-01-26T07:59:10.572Z,99026.09
2023-01-26T08:02:12.156Z,99023.50
2023-01-26T08:05:13.880Z,99016.66
2023-01-26T08:08:15.821Z,99018.38
2023-01-26T08:11:19.439Z,99021.88
2023-01-26T08:14:21.033Z,99028.91
2023-01-26T08:17:22.817Z,99026.31
2023-01-26T08:20:24.498Z,99026.22
2023-01-26T08:23:26.068Z,99021.06
2023-01-26T08:26:29.590Z,99015.84
2023-01-26T08:29:31.339Z,99017.59
2023-01-26T08:32:33.123Z,99021.16
2023-01-26T08:35:34.857Z,99025.53
2023-01-26T08:38:36.823Z,99029.03
2023-01-26T08:41:39.999Z,99031.66
2023-01-26T08:44:41.764Z,99033.47
2023-01-26T08:47:43.310Z,99034.28
2023-01-26T08:50:44.980Z,99037.75
2023-01-26T08:53:46.828Z,99030.78
2023-01-26T08:56:49.933Z,99031.63
2023-01-26T08:59:51.690Z,99032.53
2023-01-26T09:02:58.788Z,99031.69
2023-01-26T09:06:01.354Z,99031.66
2023-01-26T09:09:02.997Z,99036.03
2023-01-26T09:12:06.405Z,99043.88
2023-01-26T09:15:09.029Z,99045.63
2023-01-26T09:18:10.960Z,99042.22
2023-01-26T09:21:12.654Z,99042.22
2023-01-26T09:24:14.465Z,99045.72
2023-01-26T09:27:18.652Z,99046.63
2023-01-26T09:30:20.537Z,99038.72
2023-01-26T09:33:22.972Z,99034.41
2023-01-26T09:36:24.717Z,99037.06
2023-01-26T09:39:26.405Z,99030.97
2023-01-26T09:42:35.686Z,99032.75
2023-01-26T09:45:43.057Z,99043.22
2023-01-26T09:48:47.335Z,99033.63
2023-01-26T09:51:51.229Z,99037.97
2023-01-26T09:54:54.734Z,99041.34
2023-01-26T09:58:00.805Z,99029.22
2023-01-26T10:01:03.474Z,99024.00
2023-01-26T10:04:10.864Z,99030.97
2023-01-26T10:07:14.452Z,99026.69
2023-01-26T10:10:26.711Z,99022.38
2023-01-26T10:13:29.893Z,99025.06
2023-01-26T10:16:33.915Z,99026.78
2023-01-26T10:19:39.891Z,99022.44
2023-01-26T10:22:44.197Z,99014.53
2023-01-26T10:25:51.068Z,99014.59
2023-01-26T10:28:54.223Z,99021.56
2023-01-26T10:31:55.795Z,99021.56
2023-01-26T10:34:57.721Z,99015.47
2023-01-26T10:37:59.469Z,99007.63
2023-01-26T10:41:02.010Z,99009.28
2023-01-26T10:44:21.587Z,98997.13
2023-01-26T10:47:23.539Z,99001.50
2023-01-26T10:50:25.691Z,98997.97
2023-01-26T10:53:29.668Z,98997.13
2023-01-26T10:56:32.132Z,98993.72
2023-01-26T10:59:39.218Z,98990.22
2023-01-26T11:02:49.173Z,98985.00
2023-01-26T11:06:04.997Z,98978.09
2023-01-26T11:09:11.059Z,98973.72
2023-01-26T11:12:17.899Z,98964.13
2023-01-26T11:15:22.124Z,98969.38
2023-01-26T11:18:31.901Z,98969.38
2023-01-26T11:21:36.721Z,98975.47
2023-01-26T11:24:42.705Z,98968.50
2023-01-26T11:27:51.495Z,98958.09
2023-01-26T11:31:04.817Z,98955.41
2023-01-26T11:34:16.153Z,98947.56
2023-01-26T11:37:30.739Z,98960.72
2023-01-26T11:40:40.794Z,98964.16
2023-01-26T11:44:00.525Z,98959.78
2023-01-26T11:47:10.780Z,98956.31
2023-01-26T11:50:23.118Z,98951.09
2023-01-26T11:53:36.291Z,98950.22
2023-01-26T11:56:42.408Z,98953.72
2023-01-26T11:59:46.826Z,98955.47
2023-01-26T12:02:54.104Z,98959.84
2023-01-26T12:05:57.836Z,98951.94
2023-01-26T12:09:02.863Z,98950.25
2023-01-26T12:12:09.272Z,98946.75
2023-01-26T12:15:13.555Z,98948.50
2023-01-26T12:18:21.339Z,98941.50
2023-01-26T12:21:23.023Z,98935.41
2023-01-26T12:27:56.060Z,98933.66
2023-01-26T12:31:05.388Z,98931.91
2023-01-26T12:34:13.180Z,98932.78
2023-01-26T12:37:31.779Z,98922.31
2023-01-26T12:40:36.872Z,98924.03
2023-01-26T12:43:46.181Z,98928.41
2023-01-26T12:50:15.498Z,98915.34
2023-01-26T12:53:23.071Z,98930.19
2023-01-26T12:56:30.614Z,98906.63
2023-01-26T12:59:47.185Z,98912.72
2023-01-26T13:02:53.358Z,98912.75
2023-01-26T13:05:58.549Z,98907.53
2023-01-26T13:09:04.393Z,98908.41
2023-01-26T13:12:27.699Z,98901.41
2023-01-26T13:15:30.336Z,98896.19
2023-01-26T13:18:48.116Z,98901.41
2023-01-26T13:21:52.622Z,98899.66
2023-01-26T13:24:56.834Z,98898.78
2023-01-26T13:27:59.402Z,98904.94
2023-01-26T13:31:04.761Z,98891.84
2023-01-26T13:34:08.397Z,98894.50
2023-01-26T13:37:15.351Z,98898.00
2023-01-26T13:40:19.403Z,98896.25
2023-01-26T13:43:28.371Z,98904.13
2023-01-26T13:46:32.108Z,98904.13
2023-01-26T13:49:37.722Z,98901.50
2023-01-26T13:52:45.358Z,98907.59
2023-01-26T13:55:50.800Z,98899.75
2023-01-26T13:58:53.112Z,98906.75
2023-01-26T14:01:56.313Z,98906.72
2023-01-26T14:04:59.413Z,98907.59
2023-01-26T14:08:02.980Z,98908.47
2023-01-26T14:11:06.708Z,98910.19
2023-01-26T14:14:24.347Z,98911.97
2023-01-26T14:17:27.699Z,98907.56
2023-01-26T14:23:39.380Z,98907.56
2023-01-26T14:26:42.115Z,98916.34
2023-01-26T14:29:43.886Z,98914.59
2023-01-26T14:32:45.689Z,98919.84
2023-01-26T14:35:55.203Z,98918.91
2023-01-26T14:39:03.585Z,98921.53
2023-01-26T14:42:05.977Z,98918.03
2023-01-26T14:45:12.693Z,98923.28
2023-01-26T14:48:17.370Z,98918.91
2023-01-26T14:51:20.664Z,98916.31
2023-01-26T14:54:25.833Z,98923.31
2023-01-26T14:57:28.345Z,98920.72
2023-01-26T15:00:32.830Z,98920.72
2023-01-26T15:03:36.798Z,98920.72
2023-01-26T15:06:38.861Z,98928.56
2023-01-26T15:09:42.033Z,98925.06
2023-01-26T15:12:44.025Z,98924.19
2023-01-26T15:15:48.855Z,98925.13
2023-01-26T15:18:58.222Z,98933.81
2023-01-26T15:22:00.165Z,98933.81
2023-01-26T15:25:06.071Z,98931.19
2023-01-26T15:28:15.959Z,98932.94
2023-01-26T15:31:20.798Z,98934.69
2023-01-26T15:34:30.349Z,98928.56
2023-01-26T15:37:33.802Z,98922.44
2023-01-26T15:40:38.863Z,98927.66
2023-01-26T15:43:40.770Z,98928.53
2023-01-26T15:46:43.031Z,98925.03
2023-01-26T15:49:44.931Z,98933.75
2023-01-26T15:52:46.921Z,98929.44
2023-01-26T15:55:52.994Z,98935.50
2023-01-26T15:58:55.249Z,98938.16
2023-01-26T16:01:57.343Z,98932.06
2023-01-26T16:04:59.237Z,98941.66
2023-01-26T16:08:01.216Z,98938.16
2023-01-26T16:11:11.886Z,98937.25
2023-01-26T16:14:13.827Z,98934.69
2023-01-26T16:17:18.025Z,98934.69
2023-01-26T16:20:19.715Z,98935.56
2023-01-26T16:23:22.519Z,98937.34
2023-01-26T16:26:27.433Z,98928.59
2023-01-26T16:29:29.366Z,98927.72
2023-01-26T16:32:31.028Z,98929.47
2023-01-26T16:35:32.740Z,98930.38
2023-01-26T16:38:34.648Z,98922.53
2023-01-26T16:41:40.787Z,98930.38
2023-01-26T16:44:42.536Z,98921.66
2023-01-26T16:47:44.289Z,98919.91
2023-01-26T16:50:46.151Z,98918.16
2023-01-26T16:53:47.971Z,98921.66
2023-01-26T16:56:51.465Z,98915.50
2023-01-26T16:59:53.352Z,98920.75
2023-01-26T17:02:55.193Z,98923.41
2023-01-26T17:05:57.191Z,98922.53
2023-01-26T17:09:00.699Z,98925.16
2023-01-26T17:12:04.548Z,98926.06
2023-01-26T17:15:07.315Z,98929.56
2023-01-26T17:18:10.997Z,98928.69
2023-01-26T17:21:13.497Z,98928.69
2023-01-26T17:24:15.606Z,98933.94
2023-01-26T17:27:18.824Z,98940.94
2023-01-26T17:30:21.085Z,98939.19
2023-01-26T17:33:22.961Z,98946.19
2023-01-26T17:36:24.985Z,98947.03
2023-01-26T17:39:27.044Z,98955.72
2023-01-26T17:42:35.167Z,98952.22
2023-01-26T17:45:37.415Z,98949.59
2023-01-26T17:48:39.381Z,98956.56
2023-01-26T17:51:41.586Z,98958.31
2023-01-26T17:54:43.283Z,98956.59
2023-01-26T17:57:46.505Z,98960.97
2023-01-26T18:00:48.410Z,98964.47
2023-01-26T18:03:51.616Z,98955.72
2023-01-26T18:06:55.640Z,98964.47
2023-01-26T18:09:57.616Z,98956.59
2023-01-26T18:13:01.159Z,98966.22
2023-01-26T18:16:04.787Z,98959.22
2023-01-26T18:19:06.662Z,98970.59
2023-01-26T18:22:09.324Z,98967.09
2023-01-26T18:25:11.866Z,98966.22
2023-01-26T18:28:16.770Z,98969.69
2023-01-26T18:31:20.195Z,98968.84
2023-01-26T18:34:21.983Z,98969.72
2023-01-26T18:37:23.680Z,98972.31
2023-01-26T18:40:25.714Z,98971.47
2023-01-26T18:43:35.464Z,98968.88
2023-01-26T18:46:42.675Z,98973.25
2023-01-26T18:49:47.223Z,98966.25
2023-01-26T18:52:49.022Z,98971.50
2023-01-26T18:55:55.355Z,98973.25
2023-01-26T18:58:58.759Z,98966.28
2023-01-26T19:02:00.514Z,98968.91
2023-01-26T19:05:02.420Z,98965.44
2023-01-26T19:08:10.741Z,98965.44
2023-01-26T19:11:12.702Z,98965.47
2023-01-26T19:14:16.023Z,98961.09
2023-01-26T19:17:18.149Z,98963.72
2023-01-26T19:20:21.357Z,98963.72
2023-01-26T19:23:23.213Z,98965.47
2023-01-26T19:26:26.259Z,98966.38
2023-01-26T19:29:29.558Z,98975.09
2023-01-26T19:32:31.518Z,98980.34
2023-01-26T19:35:36.554Z,98974.22
2023-01-26T19:38:39.374Z,98980.34
2023-01-26T19:41:41.263Z,98974.22
2023-01-26T19:44:44.448Z,98979.50
2023-01-26T19:47:47.822Z,98973.38
2023-01-26T19:50:59.775Z,98976.88
2023-01-26T19:54:01.613Z,98981.25
2023-01-26T19:57:03.323Z,98969.88
2023-01-26T20:00:07.505Z,98964.63
2023-01-26T20:03:14.142Z,98962.88
2023-01-26T20:06:16.434Z,98966.38
2023-01-26T20:09:18.211Z,98968.16
2023-01-26T20:12:20.409Z,98969.00
2023-01-26T20:15:23.504Z,98976.03
2023-01-26T20:18:25.513Z,98976.03
2023-01-26T20:21:28.014Z,98969.88
2023-01-26T20:24:29.963Z,98977.75
2023-01-26T20:27:32.077Z,98969.88
2023-01-26T20:30:35.959Z,98976.03
2023-01-26T20:33:38.519Z,98977.78
2023-01-26T20:36:41.095Z,98974.25
2023-01-26T20:39:46.966Z,98983.91
2023-01-26T20:42:49.084Z,98979.50
2023-01-26T20:45:52.221Z,98983.91
2023-01-26T20:48:55.757Z,98988.28
2023-01-26T20:51:58.493Z,98985.66
2023-01-26T20:55:02.195Z,98987.41
2023-01-26T20:58:06.790Z,98990.88
2023-01-26T21:01:10.829Z,98990.00
2023-01-26T21:04:12.660Z,98986.53
2023-01-26T21:07:15.220Z,98986.53
2023-01-26T21:10:17.027Z,98986.50
2023-01-26T21:13:19.082Z,98983.00
2023-01-26T21:16:23.144Z,98986.50
2023-01-26T21:19:25.023Z,98989.13
2023-01-26T21:22:26.524Z,98986.50
2023-01-26T21:25:28.364Z,98983.00
2023-01-26T21:28:30.627Z,98980.38
2023-01-26T21:31:34.106Z,98983.00
2023-01-26T21:34:35.705Z,98975.16
2023-01-26T21:37:37.290Z,98976.91
2023-01-26T21:40:38.913Z,98972.53
2023-01-26T21:43:40.715Z,98965.53
2023-01-26T21:46:43.913Z,98962.88
2023-01-26T21:49:46.820Z,98976.00
2023-01-26T21:52:57.394Z,98970.75
2023-01-26T21:55:59.109Z,98969.00
2023-01-26T21:59:04.628Z,98972.50
2023-01-26T22:02:09.381Z,98970.75
2023-01-26T22:05:11.342Z,98969.00
2023-01-26T22:08:13.198Z,98976.88
2023-01-26T22:11:15.181Z,98977.75
2023-01-26T22:14:18.511Z,98972.50
2023-01-26T22:17:21.768Z,98982.13
2023-01-26T22:20:23.427Z,98979.50
2023-01-26T22:23:25.469Z,98975.16
2023-01-26T22:26:27.194Z,98972.53
2023-01-26T22:29:28.961Z,98983.00
2023-01-26T22:32:32.007Z,98985.63
2023-01-26T22:35:33.828Z,98984.75
2023-01-26T22:38:36.169Z,98983.88
2023-01-26T22:41:38.071Z,98986.50
2023-01-26T22:44:40.349Z,98979.50
2023-01-26T22:47:43.396Z,98983.88
2023-01-26T22:50:46.662Z,98984.75
2023-01-26T22:53:49.480Z,98990.88
2023-01-26T22:56:52.369Z,98994.38
2023-01-26T22:59:54.290Z,98997.00
2023-01-26T23:02:57.352Z,98995.25
2023-01-26T23:05:59.708Z,98999.63
2023-01-26T23:09:04.733Z,99000.50
2023-01-26T23:12:06.876Z,98997.00
2023-01-26T23:15:09.128Z,98999.63
2023-01-26T23:18:12.287Z,99001.38
2023-01-26T23:21:14.043Z,99008.38
2023-01-26T23:24:15.986Z,99004.00
2023-01-26T23:27:17.912Z,98998.75
2023-01-26T23:30:19.895Z,98998.75
2023-01-26T23:33:24.130Z,98994.38
2023-01-26T23:36:28.447Z,98997.88
2023-01-26T23:42:41.503Z,98995.25
2023-01-26T23:45:52.336Z,99000.53
2023-01-26T23:48:55.642Z,99001.41
2023-01-26T23:51:57.534Z,99000.53
2023-01-26T23:54:59.294Z,98992.66
2023-01-26T23:58:01.398Z,98996.13
